Branch, Arkansas
Current Conditions -  °F | °C
As of 1:53 PM on Monday 22 Dec 2014 (Local Time) from KFSM Reporting Station
Haze Haze  
Wind Chill: 53°   Ceiling: 2400
Heat Index: 53°   Visibility: 5mi
Dew Point: 50°   Wind: 5mph
Humidity: 89%   Direction: 350°N
Pressure: 29.54"   Gusts: NA
Location:  35.31°N, 93.95°W
Report Text: KFSM 221953Z 35004KT 5SM BR OVC024 12/10 A2954 RMK AO2 SLP002 T01170100
Loading
Personal Weather Stations






























Interactive Weather Map New forecast layout! Learn more

10-Day Weather Forecast

Advertisements
Track Severe Weather on mobile